Stouffville Airport

CA-0635 · 安大略, 加拿大

罗盘
风向 的 风向 120°
风: 9 kt, 3 beaufort

添加一条跑道以查看侧风和逆风信息。

添置 跑道
0 2.000 4.000 6.000 8.000 10.000
OVC 8.600 ft
METAR CYOO 022223Z AUTO 12009KT 9SM -RA OVC086 04/M00 A3007 RMK PRESFR SLP190

METAR Stouffville Airport - CA-0635

Stouffville Airport是,加拿大中的小机场。 视场标高为972 ft。 该领域的国际民航组织标志是CA-0635.

这份报告是针对2022年12月2日 17:23, 当地时间在Toronto/Oshawa Executive Airport进行的。

机场观察

风向为120°,速度为9 kt。

可见度为9 mi。

有乌云密布在8.600 ft的高度。 破损或更高的上限为8.600 ft。

当前天气为光 雨。 温度为4 °C,阵风为-2 °C。 海平面上的气压为30,07 inHg (QNH)。

白天

今天,太阳从07:32升起,在16:40降落。 这适用于Stouffville Airport,世界夏令时可能有所不同。 当地时间与世界标准时间之间的时差为-5 小时。 当前,没有夏令时有效。

公司介绍

我们没有关于这个机场的公司信息。

体会

到Vliegles.nl去找飞行课程,跳伞和其他飞行体验。 浏览页面,了解Stouffville Airport附近所有可用的活动。 你也可以使用搜索功能来寻找你所在地附近的特定飞行课程、跳伞或其他飞行体验。

乌云

8.600 ft OVC 乌云密布

温度 & 天气

天气 光 雨
温度 4 °C
露点 0 °C
相对湿度 75%
风寒 -2 °C
Kp-index 2 (0-9)

评论

PRESFR气压迅速下降
SLP190海平面压力为30,09 inHg (30,09 inHg)

白天

日出
07:31 (13:56)
中午
12:05
日落
16:38

小工具

你想在你的网站上有一个关于Stouffville Airport的当前航空天气(METAR)的小部件吗?

显示HTML代码

我们和第三方通过cookies跟踪您在我们网站上的互联网行为。如果你继续,我们认为你同意我们的饼干政策